createdAt,value
2018-01-17T00:00:14.607Z,68.80
2018-01-17T00:02:42.994Z,68.20
2018-01-17T00:05:10.676Z,68.30
2018-01-17T00:07:38.346Z,68.20
2018-01-17T00:10:06.113Z,68.00
2018-01-17T00:12:34.496Z,68.40
2018-01-17T00:15:02.252Z,68.50
2018-01-17T00:17:30.281Z,68.50
2018-01-17T00:19:58.197Z,68.50
2018-01-17T00:22:38.321Z,68.60
2018-01-17T00:25:06.005Z,68.60
2018-01-17T00:27:33.659Z,68.70
2018-01-17T00:30:01.500Z,68.50
2018-01-17T00:32:29.138Z,68.70
2018-01-17T00:34:57.546Z,68.60
2018-01-17T00:37:25.180Z,68.50
2018-01-17T00:39:52.814Z,68.20
2018-01-17T00:42:20.677Z,68.20
2018-01-17T00:44:49.360Z,68.20
2018-01-17T00:47:17.355Z,68.60
2018-01-17T00:49:45.204Z,68.80
2018-01-17T00:52:13.674Z,68.90
2018-01-17T00:54:41.435Z,69.00
2018-01-17T00:57:09.400Z,68.90
2018-01-17T00:59:37.885Z,69.00
2018-01-17T01:02:05.853Z,69.10
2018-01-17T01:04:33.612Z,69.10
2018-01-17T01:07:01.321Z,69.20
2018-01-17T01:09:29.862Z,69.10
2018-01-17T01:11:58.523Z,69.00
2018-01-17T01:14:26.770Z,69.10
2018-01-17T01:16:55.343Z,69.00
2018-01-17T01:19:23.158Z,69.00
2018-01-17T01:21:55.286Z,69.70
2018-01-17T01:24:23.293Z,69.10
2018-01-17T01:26:52.430Z,69.40
2018-01-17T01:29:22.383Z,68.90
2018-01-17T01:31:50.638Z,68.90
2018-01-17T01:34:18.439Z,68.80
2018-01-17T01:39:37.416Z,68.50
2018-01-17T01:42:05.084Z,68.40
2018-01-17T01:44:32.979Z,68.70
2018-01-17T01:47:00.704Z,68.80
2018-01-17T01:49:29.903Z,69.00
2018-01-17T01:51:57.669Z,69.10
2018-01-17T01:54:25.431Z,69.10
2018-01-17T01:56:53.357Z,69.10
2018-01-17T01:59:21.738Z,68.80
2018-01-17T02:01:50.366Z,68.90
2018-01-17T02:04:18.230Z,69.10
2018-01-17T02:06:46.091Z,68.90
2018-01-17T02:09:13.741Z,68.60
2018-01-17T02:11:41.642Z,68.80
2018-01-17T02:14:09.425Z,68.70
2018-01-17T02:16:38.015Z,69.10
2018-01-17T02:19:06.796Z,69.10
2018-01-17T02:21:35.563Z,69.10
2018-01-17T02:24:03.663Z,69.10
2018-01-17T02:26:31.318Z,69.20
2018-01-17T02:29:00.450Z,69.80
2018-01-17T02:31:29.327Z,69.70
2018-01-17T02:33:57.345Z,69.60
2018-01-17T02:36:25.189Z,69.70
2018-01-17T02:38:53.581Z,70.00
2018-01-17T02:41:22.152Z,70.20
2018-01-17T02:43:50.531Z,70.30
2018-01-17T02:46:18.357Z,70.40
2018-01-17T02:48:46.156Z,70.40
2018-01-17T02:51:13.964Z,70.60
2018-01-17T02:53:42.599Z,71.10
2018-01-17T02:56:10.575Z,71.20
2018-01-17T02:58:38.338Z,71.00
2018-01-17T03:01:06.910Z,71.10
2018-01-17T03:03:34.596Z,71.30
2018-01-17T03:06:02.241Z,71.10
2018-01-17T03:08:29.879Z,70.80
2018-01-17T03:10:57.572Z,70.70
2018-01-17T03:13:25.506Z,70.50
2018-01-17T03:15:53.225Z,70.40
2018-01-17T03:18:20.968Z,70.20
2018-01-17T03:20:48.719Z,70.20
2018-01-17T03:23:16.484Z,70.10
2018-01-17T03:25:44.356Z,70.10
2018-01-17T03:28:12.355Z,70.40
2018-01-17T03:30:40.187Z,71.00
2018-01-17T03:33:08.050Z,71.00
2018-01-17T03:35:35.748Z,71.00
2018-01-17T03:38:04.528Z,71.20
2018-01-17T03:40:32.176Z,71.30
2018-01-17T03:42:59.816Z,71.10
2018-01-17T03:45:27.891Z,71.20
2018-01-17T03:47:56.304Z,71.20
2018-01-17T03:50:24.131Z,71.40
2018-01-17T03:52:52.025Z,71.40
2018-01-17T03:55:19.831Z,71.50
2018-01-17T03:57:47.627Z,71.60
2018-01-17T04:00:15.391Z,71.60
2018-01-17T04:02:43.257Z,71.60
2018-01-17T04:05:10.897Z,71.60
2018-01-17T04:07:39.277Z,71.60
2018-01-17T04:10:06.970Z,71.80
2018-01-17T04:12:34.830Z,71.80
2018-01-17T04:15:02.486Z,71.90
2018-01-17T04:17:30.745Z,72.00
2018-01-17T04:19:58.464Z,72.00
2018-01-17T04:22:27.145Z,71.90
2018-01-17T04:24:55.693Z,71.80
2018-01-17T04:27:23.386Z,71.80
2018-01-17T04:29:51.939Z,71.50
2018-01-17T04:32:19.807Z,71.20
2018-01-17T04:34:47.733Z,70.80
2018-01-17T04:37:15.530Z,70.50
2018-01-17T04:39:43.393Z,70.40
2018-01-17T04:42:11.176Z,70.30
2018-01-17T04:44:38.824Z,70.20
2018-01-17T04:47:06.683Z,70.00
2018-01-17T04:49:34.321Z,69.70
2018-01-17T04:52:02.282Z,69.50
2018-01-17T04:54:30.217Z,69.40
2018-01-17T04:56:58.618Z,69.20
2018-01-17T04:59:26.360Z,69.20
2018-01-17T05:01:54.809Z,69.30
2018-01-17T05:04:22.450Z,69.30
2018-01-17T05:06:50.454Z,69.00
2018-01-17T05:09:18.300Z,69.00
2018-01-17T05:11:45.988Z,69.20
2018-01-17T05:14:13.821Z,69.20
2018-01-17T05:16:41.620Z,69.00
2018-01-17T05:19:10.166Z,69.50
2018-01-17T05:21:37.809Z,69.20
2018-01-17T05:24:05.483Z,69.40
2018-01-17T05:26:33.254Z,69.40
2018-01-17T05:29:00.887Z,69.30
2018-01-17T05:31:28.585Z,69.20
2018-01-17T05:33:56.214Z,69.10
2018-01-17T05:36:24.000Z,69.10
2018-01-17T05:38:52.012Z,69.00
2018-01-17T05:41:21.169Z,69.10
2018-01-17T05:43:48.856Z,69.10
2018-01-17T05:46:16.691Z,69.10
2018-01-17T05:48:44.405Z,69.50
2018-01-17T05:51:13.036Z,69.00
2018-01-17T05:53:40.902Z,68.90
2018-01-17T05:56:08.667Z,69.00
2018-01-17T05:58:36.794Z,69.10
2018-01-17T06:01:04.761Z,69.30
2018-01-17T06:03:33.291Z,69.20
2018-01-17T06:06:01.161Z,69.10
2018-01-17T06:08:28.916Z,69.00
2018-01-17T06:10:56.759Z,69.10
2018-01-17T06:13:25.170Z,69.00
2018-01-17T06:15:52.967Z,68.80
2018-01-17T06:18:21.609Z,68.80
2018-01-17T06:20:52.047Z,68.70
2018-01-17T06:23:20.902Z,68.70
2018-01-17T06:25:48.707Z,68.80
2018-01-17T06:28:16.553Z,68.80
2018-01-17T06:33:11.996Z,68.70
2018-01-17T06:35:40.565Z,68.80
2018-01-17T06:38:08.609Z,68.40
2018-01-17T06:40:36.907Z,68.50
2018-01-17T06:43:04.668Z,68.50
2018-01-17T06:45:33.375Z,68.70
2018-01-17T06:48:02.091Z,68.90
2018-01-17T06:50:30.559Z,69.20
2018-01-17T06:53:00.269Z,69.30
2018-01-17T06:55:28.542Z,69.30
2018-01-17T06:57:56.195Z,69.30
2018-01-17T07:00:24.135Z,69.50
2018-01-17T07:02:51.938Z,69.50
2018-01-17T07:05:20.474Z,68.90
2018-01-17T07:07:49.052Z,68.90
2018-01-17T07:10:17.294Z,68.90
2018-01-17T07:12:45.747Z,69.20
2018-01-17T07:15:13.736Z,68.50
2018-01-17T07:17:42.133Z,68.20
2018-01-17T07:20:09.861Z,68.30
2018-01-17T07:22:38.817Z,68.00
2018-01-17T07:25:06.518Z,68.00
2018-01-17T07:27:34.987Z,67.80
2018-01-17T07:30:02.825Z,67.80
2018-01-17T07:32:31.512Z,67.50
2018-01-17T07:34:59.480Z,67.50
2018-01-17T07:37:27.475Z,67.30
2018-01-17T07:39:55.462Z,67.20
2018-01-17T07:42:24.923Z,67.30
2018-01-17T07:44:52.615Z,67.30
2018-01-17T07:47:20.452Z,67.30
2018-01-17T07:49:48.663Z,66.90
2018-01-17T07:52:17.819Z,66.70
2018-01-17T07:54:45.585Z,66.70
2018-01-17T07:57:13.586Z,66.50
2018-01-17T07:59:42.072Z,66.80
2018-01-17T08:02:10.710Z,67.00
2018-01-17T08:04:38.473Z,67.00
2018-01-17T08:07:06.512Z,67.00
2018-01-17T08:09:34.892Z,67.70
2018-01-17T08:12:02.585Z,68.00
2018-01-17T08:14:30.221Z,68.70
2018-01-17T08:16:58.005Z,69.30
2018-01-17T08:19:25.874Z,69.50
2018-01-17T08:21:53.665Z,69.80
2018-01-17T08:24:21.501Z,70.30
2018-01-17T08:26:49.362Z,70.50
2018-01-17T08:29:17.826Z,70.90
2018-01-17T08:31:46.185Z,71.00
2018-01-17T08:34:13.988Z,71.30
2018-01-17T08:36:41.854Z,71.80
2018-01-17T08:39:09.718Z,72.00
2018-01-17T08:41:37.482Z,72.50
2018-01-17T08:44:05.193Z,72.90
2018-01-17T08:46:33.829Z,73.40
2018-01-17T08:49:01.838Z,73.50
2018-01-17T08:51:30.504Z,73.50
2018-01-17T08:53:59.944Z,73.30
2018-01-17T08:56:28.206Z,73.30
2018-01-17T08:58:56.711Z,73.70
2018-01-17T09:01:24.915Z,73.70
2018-01-17T09:03:52.781Z,73.80
2018-01-17T09:06:20.545Z,74.00
2018-01-17T09:08:48.421Z,74.10
2018-01-17T09:11:16.788Z,74.30
2018-01-17T09:13:44.553Z,74.50
2018-01-17T09:16:12.519Z,74.60
2018-01-17T09:18:41.142Z,74.70
2018-01-17T09:21:09.619Z,74.40
2018-01-17T09:23:38.164Z,74.40
2018-01-17T09:26:06.560Z,74.40
2018-01-17T09:28:34.410Z,74.50
2018-01-17T09:31:02.234Z,74.30
2018-01-17T09:33:29.981Z,75.10
2018-01-17T09:35:59.336Z,74.40
2018-01-17T09:38:26.993Z,74.40
2018-01-17T09:40:54.659Z,74.30
2018-01-17T09:43:22.330Z,74.40
2018-01-17T09:45:50.184Z,74.40
2018-01-17T09:48:17.858Z,74.30
2018-01-17T09:50:45.711Z,74.30
2018-01-17T09:53:13.371Z,74.20
2018-01-17T09:55:41.259Z,74.20
2018-01-17T09:58:09.821Z,73.80
2018-01-17T10:00:37.556Z,73.80
2018-01-17T10:03:06.398Z,73.60
2018-01-17T10:05:34.086Z,73.50
2018-01-17T10:08:02.509Z,73.80
2018-01-17T10:10:31.104Z,73.40
2018-01-17T10:12:59.372Z,73.40
2018-01-17T10:15:28.428Z,73.20
2018-01-17T10:17:56.976Z,73.20
2018-01-17T10:20:24.764Z,72.80
2018-01-17T10:22:53.291Z,72.80
2018-01-17T10:25:21.056Z,72.70
2018-01-17T10:27:49.538Z,72.40
2018-01-17T10:30:17.798Z,72.10
2018-01-17T10:32:45.437Z,71.70
2018-01-17T10:35:13.413Z,71.20
2018-01-17T10:37:41.100Z,71.10
2018-01-17T10:40:08.865Z,70.70
2018-01-17T10:42:36.570Z,70.30
2018-01-17T10:45:05.107Z,70.00
2018-01-17T10:47:32.871Z,70.00
2018-01-17T10:50:00.737Z,69.60
2018-01-17T10:52:28.502Z,70.10
2018-01-17T10:54:56.881Z,70.20
2018-01-17T10:57:24.646Z,70.10
2018-01-17T10:59:52.411Z,69.80
2018-01-17T11:02:20.278Z,70.00
2018-01-17T11:04:48.041Z,69.70
2018-01-17T11:07:15.802Z,69.40
2018-01-17T11:09:43.566Z,69.10
2018-01-17T11:12:11.337Z,68.60
2018-01-17T11:14:39.125Z,68.90
2018-01-17T11:17:06.815Z,67.80
2018-01-17T11:19:34.449Z,68.70
2018-01-17T11:22:02.853Z,67.90
2018-01-17T11:24:31.483Z,66.80
2018-01-17T11:26:59.421Z,66.90
2018-01-17T11:29:27.204Z,66.80
2018-01-17T11:31:55.003Z,66.50
2018-01-17T11:34:22.834Z,65.30
2018-01-17T11:36:50.597Z,66.10
2018-01-17T11:39:19.180Z,66.30
2018-01-17T11:41:46.975Z,66.80
2018-01-17T11:44:14.808Z,66.90
2018-01-17T11:46:43.287Z,68.20
2018-01-17T11:49:11.672Z,67.50
2018-01-17T11:51:40.048Z,67.80
2018-01-17T11:54:07.790Z,67.90
2018-01-17T11:56:35.432Z,67.90
2018-01-17T11:59:03.257Z,68.40
2018-01-17T12:01:31.096Z,68.50
2018-01-17T12:03:58.860Z,68.80
2018-01-17T12:06:26.626Z,69.00
2018-01-17T12:08:54.330Z,68.50
2018-01-17T12:11:23.830Z,68.60
2018-01-17T12:13:52.313Z,68.50
2018-01-17T12:16:20.789Z,68.40
2018-01-17T12:18:49.701Z,68.50
2018-01-17T12:21:18.043Z,68.50
2018-01-17T12:23:45.725Z,68.20
2018-01-17T12:26:14.265Z,68.70
2018-01-17T12:28:42.399Z,68.70
2018-01-17T12:31:10.678Z,68.80
2018-01-17T12:33:38.354Z,68.90
2018-01-17T12:36:06.137Z,69.20
2018-01-17T12:38:33.998Z,69.40
2018-01-17T12:41:02.376Z,70.00
2018-01-17T12:43:30.361Z,70.50
2018-01-17T12:45:58.627Z,71.00
2018-01-17T12:48:26.360Z,71.70
2018-01-17T12:50:54.094Z,72.50
2018-01-17T12:53:22.627Z,73.50
2018-01-17T12:55:50.493Z,73.50
2018-01-17T12:58:18.255Z,73.70
2018-01-17T13:00:46.622Z,74.30
2018-01-17T13:03:14.404Z,74.50
2018-01-17T13:05:42.166Z,74.60
2018-01-17T13:08:09.970Z,75.00
2018-01-17T13:10:39.159Z,75.20
2018-01-17T13:13:07.551Z,75.10
2018-01-17T13:15:36.189Z,74.70
2018-01-17T13:18:03.843Z,74.70
2018-01-17T13:20:31.490Z,75.40
2018-01-17T13:22:59.985Z,75.50
2018-01-17T13:25:27.794Z,75.50
2018-01-17T13:27:56.950Z,76.20
2018-01-17T13:30:24.949Z,76.10
2018-01-17T13:32:53.900Z,75.70
2018-01-17T13:35:21.710Z,75.80
2018-01-17T13:37:50.156Z,75.50
2018-01-17T13:40:18.021Z,75.40
2018-01-17T13:42:45.779Z,75.60
2018-01-17T13:45:13.645Z,75.70
2018-01-17T13:47:41.510Z,75.70
2018-01-17T13:50:09.787Z,76.10
2018-01-17T13:52:37.549Z,76.40
2018-01-17T13:55:05.268Z,76.30
2018-01-17T13:57:33.076Z,76.20
2018-01-17T14:00:01.659Z,76.20
2018-01-17T14:02:29.525Z,76.20
2018-01-17T14:04:57.233Z,76.10
2018-01-17T14:07:25.870Z,75.80
2018-01-17T14:09:53.655Z,75.60
2018-01-17T14:12:21.398Z,75.50
2018-01-17T14:14:49.852Z,75.30
2018-01-17T14:17:17.640Z,75.20
2018-01-17T14:19:45.404Z,75.00
2018-01-17T14:22:13.170Z,75.10
2018-01-17T14:24:40.877Z,75.00
2018-01-17T14:27:09.376Z,74.00
2018-01-17T14:29:37.077Z,74.00
2018-01-17T14:32:04.874Z,74.00
2018-01-17T14:34:33.431Z,73.50
2018-01-17T14:37:02.178Z,73.50
2018-01-17T14:39:29.976Z,73.50
2018-01-17T14:41:57.741Z,73.30
2018-01-17T14:44:25.626Z,72.90
2018-01-17T14:46:53.581Z,72.90
2018-01-17T14:49:21.339Z,72.80
2018-01-17T14:51:49.501Z,72.60
2018-01-17T14:54:17.209Z,72.70
2018-01-17T14:56:46.578Z,72.10
2018-01-17T14:59:14.331Z,72.10
2018-01-17T15:01:41.973Z,71.70
2018-01-17T15:04:09.683Z,71.50
2018-01-17T15:06:37.516Z,71.30
2018-01-17T15:09:05.565Z,70.80
2018-01-17T15:11:34.307Z,70.50
2018-01-17T15:14:01.957Z,70.30
2018-01-17T15:16:29.802Z,70.00
2018-01-17T15:18:58.186Z,70.00
2018-01-17T15:21:25.940Z,70.00
2018-01-17T15:23:53.703Z,69.60
2018-01-17T15:26:21.493Z,69.90
2018-01-17T15:28:49.289Z,69.70
2018-01-17T15:31:17.556Z,69.80
2018-01-17T15:33:46.158Z,70.00
2018-01-17T15:36:13.961Z,70.00
2018-01-17T15:38:41.716Z,69.60
2018-01-17T15:41:09.535Z,70.00
2018-01-17T15:43:38.165Z,69.10
2018-01-17T15:46:05.993Z,69.10
2018-01-17T15:48:34.283Z,69.00
2018-01-17T15:51:02.692Z,69.20
2018-01-17T15:53:31.120Z,68.70
2018-01-17T15:55:58.799Z,68.50
2018-01-17T15:58:27.215Z,68.70
2018-01-17T16:00:55.069Z,68.70
2018-01-17T16:03:22.892Z,69.00
2018-01-17T16:05:51.244Z,69.00
2018-01-17T16:08:18.953Z,69.30
2018-01-17T16:10:46.614Z,68.70
2018-01-17T16:13:14.897Z,69.10
2018-01-17T16:15:42.672Z,69.30
2018-01-17T16:18:11.029Z,69.10
2018-01-17T16:20:39.225Z,69.40
2018-01-17T16:23:07.088Z,69.50
2018-01-17T16:25:35.466Z,69.20
2018-01-17T16:28:03.332Z,69.00
2018-01-17T16:30:31.585Z,68.80
2018-01-17T16:32:59.261Z,69.20
2018-01-17T16:35:27.246Z,69.10
2018-01-17T16:37:55.025Z,68.90
2018-01-17T16:40:22.768Z,69.00
2018-01-17T16:42:51.141Z,68.90
2018-01-17T16:45:18.905Z,68.40
2018-01-17T16:47:46.668Z,68.30
2018-01-17T16:50:14.334Z,68.10
2018-01-17T16:52:42.127Z,68.20
2018-01-17T16:55:10.088Z,68.40
2018-01-17T17:00:11.749Z,68.00
2018-01-17T17:02:40.316Z,67.90
2018-01-17T17:05:07.975Z,67.80
2018-01-17T17:07:35.842Z,67.20
2018-01-17T17:10:03.710Z,67.40
2018-01-17T17:12:31.598Z,67.40
2018-01-17T17:14:59.450Z,67.50
2018-01-17T17:17:27.204Z,66.80
2018-01-17T17:19:55.701Z,66.60
2018-01-17T17:22:23.550Z,66.30
2018-01-17T17:24:51.586Z,66.70
2018-01-17T17:27:19.324Z,66.40
2018-01-17T17:29:48.008Z,65.60
2018-01-17T17:32:17.311Z,65.80
2018-01-17T17:34:46.497Z,65.30
2018-01-17T17:37:14.262Z,65.30
2018-01-17T17:39:41.980Z,65.30
2018-01-17T17:42:10.330Z,65.80
2018-01-17T17:44:38.026Z,65.20
2018-01-17T17:47:05.791Z,65.00
2018-01-17T17:49:34.272Z,65.10
2018-01-17T17:52:02.170Z,65.00
2018-01-17T17:54:30.757Z,65.00
2018-01-17T17:56:59.219Z,65.30
2018-01-17T17:59:26.918Z,65.30
2018-01-17T18:01:56.331Z,65.00
2018-01-17T18:04:26.855Z,65.00
2018-01-17T18:06:54.502Z,64.90
2018-01-17T18:09:22.484Z,64.50
2018-01-17T18:11:50.305Z,64.80
2018-01-17T18:14:18.006Z,64.60
2018-01-17T18:16:48.565Z,64.30
2018-01-17T18:19:16.281Z,64.70
2018-01-17T18:21:45.332Z,64.70
2018-01-17T18:24:13.325Z,64.70
2018-01-17T18:26:41.592Z,64.50
2018-01-17T18:29:09.443Z,64.70
2018-01-17T18:31:37.206Z,64.90
2018-01-17T18:34:04.871Z,64.60
2018-01-17T18:36:32.883Z,64.70
2018-01-17T18:39:01.732Z,64.70
2018-01-17T18:41:30.314Z,64.70
2018-01-17T18:43:58.125Z,64.90
2018-01-17T18:46:26.357Z,64.80
2018-01-17T18:48:54.865Z,64.90
2018-01-17T18:51:23.412Z,64.70
2018-01-17T18:53:51.171Z,64.70
2018-01-17T18:56:18.934Z,65.00
2018-01-17T18:58:46.677Z,65.00
2018-01-17T19:01:14.676Z,65.20
2018-01-17T19:03:43.195Z,65.70
2018-01-17T19:06:11.729Z,65.80
2018-01-17T19:08:39.599Z,65.90
2018-01-17T19:11:07.602Z,66.00
2018-01-17T19:13:36.153Z,66.10
2018-01-17T19:16:03.959Z,66.10
2018-01-17T19:18:32.892Z,66.10
2018-01-17T19:21:00.543Z,66.10
2018-01-17T19:23:28.783Z,66.00
2018-01-17T19:25:57.317Z,66.40
2018-01-17T19:28:25.284Z,66.60
2018-01-17T19:30:54.498Z,66.30
2018-01-17T19:33:22.519Z,66.50
2018-01-17T19:35:51.036Z,66.50
2018-01-17T19:38:19.364Z,66.60
2018-01-17T19:40:48.237Z,66.50
2018-01-17T19:43:17.496Z,66.60
2018-01-17T19:45:46.101Z,66.50
2018-01-17T19:48:14.222Z,66.60
2018-01-17T19:50:42.746Z,66.20
2018-01-17T19:53:10.599Z,66.30
2018-01-17T19:55:38.645Z,66.20
2018-01-17T19:58:08.889Z,66.40
2018-01-17T20:00:37.677Z,66.50
2018-01-17T20:03:05.573Z,66.40
2018-01-17T20:05:36.108Z,66.60
2018-01-17T20:08:03.866Z,66.40
2018-01-17T20:10:31.508Z,65.80
2018-01-17T20:12:59.261Z,66.00
2018-01-17T20:15:27.642Z,65.90
2018-01-17T20:17:55.507Z,66.90
2018-01-17T20:20:23.368Z,66.10
2018-01-17T20:22:57.001Z,66.10
2018-01-17T20:25:24.836Z,65.80
2018-01-17T20:27:53.622Z,66.10
2018-01-17T20:30:21.386Z,66.80
2018-01-17T20:32:49.870Z,66.20
2018-01-17T20:35:17.732Z,65.80
2018-01-17T20:37:45.597Z,65.70
2018-01-17T20:40:13.287Z,65.70
2018-01-17T20:42:41.063Z,65.80
2018-01-17T20:45:09.513Z,66.00
2018-01-17T20:47:38.014Z,65.90
2018-01-17T20:50:05.746Z,65.70
2018-01-17T20:52:33.611Z,65.70
2018-01-17T20:55:01.587Z,65.40
2018-01-17T20:57:29.446Z,65.40
2018-01-17T20:59:57.125Z,65.50
2018-01-17T21:02:27.230Z,65.40
2018-01-17T21:04:55.027Z,65.30
2018-01-17T21:07:23.519Z,65.40
2018-01-17T21:09:53.043Z,65.40
2018-01-17T21:12:21.279Z,65.40
2018-01-17T21:14:48.962Z,65.40
2018-01-17T21:17:16.780Z,64.80
2018-01-17T21:19:44.545Z,65.10
2018-01-17T21:22:12.238Z,65.00
2018-01-17T21:24:40.993Z,65.30
2018-01-17T21:27:09.634Z,65.30
2018-01-17T21:29:37.906Z,64.90
2018-01-17T21:32:05.715Z,65.30
2018-01-17T21:34:37.044Z,65.40
2018-01-17T21:37:18.130Z,65.20
2018-01-17T21:39:46.355Z,65.10
2018-01-17T21:42:20.018Z,65.10
2018-01-17T21:44:53.589Z,65.20
2018-01-17T21:47:22.086Z,65.20
2018-01-17T21:49:49.956Z,65.20
2018-01-17T21:52:18.332Z,65.10
2018-01-17T21:54:46.104Z,65.60
2018-01-17T21:57:13.788Z,65.50
2018-01-17T21:59:43.057Z,65.80
2018-01-17T22:02:10.959Z,65.80
2018-01-17T22:04:39.506Z,65.70
2018-01-17T22:07:07.193Z,65.70
2018-01-17T22:09:34.901Z,65.60
2018-01-17T22:12:03.295Z,65.20
2018-01-17T22:14:31.070Z,65.00
2018-01-17T22:16:59.683Z,65.20
2018-01-17T22:19:27.520Z,65.20
2018-01-17T22:21:55.489Z,65.30
2018-01-17T22:24:26.208Z,65.40
2018-01-17T22:26:53.941Z,65.20
2018-01-17T22:29:21.703Z,65.00
2018-01-17T22:31:49.588Z,64.80
2018-01-17T22:34:17.315Z,65.00
2018-01-17T22:36:45.708Z,65.20
2018-01-17T22:39:13.483Z,65.20
2018-01-17T22:41:41.870Z,66.30
2018-01-17T22:44:10.426Z,67.30
2018-01-17T22:46:39.733Z,67.30
2018-01-17T22:49:07.437Z,68.00
2018-01-17T22:51:35.446Z,67.00
2018-01-17T22:54:03.988Z,67.30
2018-01-17T22:56:32.571Z,67.30
2018-01-17T22:59:01.227Z,67.20
2018-01-17T23:01:29.684Z,67.30
2018-01-17T23:03:58.318Z,67.30
2018-01-17T23:06:26.794Z,67.20
2018-01-17T23:08:55.505Z,67.60
2018-01-17T23:11:23.150Z,67.40
2018-01-17T23:13:51.243Z,67.80
2018-01-17T23:16:20.280Z,67.80
2018-01-17T23:18:48.580Z,67.80
2018-01-17T23:21:17.979Z,67.70
2018-01-17T23:23:46.396Z,67.70
2018-01-17T23:26:14.129Z,67.60
2018-01-17T23:28:41.800Z,67.80
2018-01-17T23:31:10.270Z,67.30
2018-01-17T23:33:38.135Z,67.00
2018-01-17T23:36:05.774Z,67.00
2018-01-17T23:38:36.529Z,66.60
2018-01-17T23:41:06.443Z,66.50
2018-01-17T23:43:34.797Z,66.50
2018-01-17T23:46:02.586Z,66.40
2018-01-17T23:48:30.283Z,66.40
2018-01-17T23:50:59.443Z,66.40
2018-01-17T23:53:27.315Z,66.40
2018-01-17T23:55:55.173Z,66.40
2018-01-17T23:58:23.161Z,66.50
